Time;durP1;ratioP1;P1;durP2;ratioP2;P2;SDS_P1;SDS_P2;PMS_P1;PMS_P2;Temp;Humidity;BMP_temperature;BMP_pressure;BME280_temperature;BME280_humidity;BME280_pressure;Samples;Min_cycle;Max_cycle;Signal;HPM_P1;HPM_P2
2022/06/02 00:00:12;;;;;;;18.23;8.53;;;;;;;17.78;84.99;101109.09;1881812;76;21445;-61
2022/06/02 00:02:48;;;;;;;17.77;8.85;;;;;;;17.77;84.98;101106.91;1891589;75;21554;-61
2022/06/02 00:05:50;;;;;;;16.32;9.38;;;;;;;17.78;85.12;101105.97;1889650;75;21505;-62
2022/06/02 00:08:25;;;;;;;23.25;8.70;;;;;;;17.80;85.48;101092.53;1888036;75;21138;-61
2022/06/02 00:10:56;;;;;;;13.08;7.00;;;;;;;17.81;85.79;101094.25;1891437;75;21047;-61
2022/06/02 00:13:43;;;;;;;15.20;7.53;;;;;;;17.79;86.12;101086.36;1890835;75;21043;-61
2022/06/02 00:16:15;;;;;;;13.88;6.12;;;;;;;17.78;85.77;101091.77;1891575;75;21593;-61
2022/06/02 00:18:50;;;;;;;17.27;6.60;;;;;;;17.74;85.70;101095.98;1891417;76;21043;-61
2022/06/02 00:21:48;;;;;;;16.10;6.55;;;;;;;17.70;85.57;101087.79;1891408;76;21168;-61
2022/06/02 00:24:39;;;;;;;14.30;6.00;;;;;;;17.66;85.24;101091.61;1891334;76;21118;-61
2022/06/02 00:27:38;;;;;;;16.70;5.92;;;;;;;17.57;84.93;101088.19;1891429;76;21035;-61
2022/06/02 00:30:18;;;;;;;16.32;6.75;;;;;;;17.48;84.83;101080.78;1891457;76;21035;-61
2022/06/02 00:33:11;;;;;;;12.28;5.62;;;;;;;17.42;84.87;101084.69;1886596;76;21035;-61
2022/06/02 00:35:49;;;;;;;12.88;6.30;;;;;;;17.38;84.83;101086.31;1891908;75;21108;-61
2022/06/02 00:38:20;;;;;;;15.43;9.43;;;;;;;17.38;84.83;101086.31;1891371;75;21067;-61
2022/06/02 00:40:50;;;;;;;14.03;9.28;;;;;;;17.38;85.53;101088.49;1891515;76;21071;-61
2022/06/02 00:43:33;;;;;;;14.93;7.78;;;;;;;17.40;85.54;101088.41;1891527;76;21082;-61
2022/06/02 00:46:08;;;;;;;15.95;9.75;;;;;;;17.39;85.79;101085.34;1891665;75;20995;-60
2022/06/02 00:49:10;;;;;;;12.58;7.83;;;;;;;17.38;85.81;101091.64;1891681;75;21152;-61
2022/06/02 00:52:16;;;;;;;14.13;7.83;;;;;;;17.36;85.57;101079.27;1891519;75;21116;-61
2022/06/02 00:58:13;;;;;;;18.23;7.92;;;;;;;17.31;85.63;101086.67;1806063;79;21699;-61
2022/06/02 01:00:48;;;;;;;15.40;8.00;;;;;;;17.29;85.78;101088.58;1806990;78;21536;-60
2022/06/02 01:03:22;;;;;;;11.33;7.22;;;;;;;17.27;85.91;101082.50;1860653;75;21470;-61
2022/06/02 01:06:00;;;;;;;16.52;7.17;;;;;;;17.26;86.10;101078.59;1891437;75;21011;-61
2022/06/02 01:08:58;;;;;;;23.22;13.40;;;;;;;17.27;85.82;101081.66;1890963;75;21090;-61
2022/06/02 01:11:35;;;;;;;79.30;46.00;;;;;;;17.26;85.67;101087.43;1891525;76;21490;-61
2022/06/02 01:14:15;;;;;;;91.10;46.10;;;;;;;17.25;85.98;101084.41;1891558;76;21031;-64
2022/06/02 01:16:59;;;;;;;78.55;42.33;;;;;;;17.23;85.99;101088.13;1890657;74;21067;-61
2022/06/02 01:19:30;;;;;;;73.42;37.95;;;;;;;17.22;85.91;101081.92;1890956;75;21607;-61
2022/06/02 01:22:23;;;;;;;71.70;34.63;;;;;;;17.20;85.94;101087.81;1891514;76;21090;-61
2022/06/02 01:25:17;;;;;;;63.20;31.33;;;;;;;17.20;85.75;101090.96;1876640;75;21082;-61
2022/06/02 01:28:14;;;;;;;61.18;31.77;;;;;;;17.21;85.94;101092.66;1891509;76;21482;-61
2022/06/02 01:31:01;;;;;;;50.78;29.10;;;;;;;17.20;85.92;101085.16;1891473;75;21089;-62
2022/06/02 01:33:35;;;;;;;46.25;26.10;;;;;;;17.22;86.07;101087.24;1891032;75;21105;-61
2022/06/02 01:36:10;;;;;;;29.70;18.77;;;;;;;17.23;85.83;101085.46;1877101;75;21031;-61
2022/06/02 01:38:41;;;;;;;35.90;12.37;;;;;;;17.22;85.57;101088.58;1890935;75;21359;-61
2022/06/02 01:41:37;;;;;;;27.65;18.45;;;;;;;17.18;85.50;101088.39;1891433;76;21035;-62
2022/06/02 01:44:30;;;;;;;35.33;21.90;;;;;;;17.16;85.32;101087.63;1891496;75;21035;-61
2022/06/02 01:47:12;;;;;;;31.50;19.73;;;;;;;17.14;85.47;101088.20;1891034;75;21152;-61
2022/06/02 01:49:49;;;;;;;18.92;10.65;;;;;;;17.11;85.43;101089.70;1890158;75;21039;-61
2022/06/02 01:52:26;;;;;;;15.00;7.60;;;;;;;17.09;85.14;101088.95;1890721;75;21111;-61
2022/06/02 01:55:15;;;;;;;14.95;6.28;;;;;;;17.06;84.96;101090.45;1891532;75;21505;-61
2022/06/02 01:57:47;;;;;;;13.15;6.87;;;;;;;17.03;84.89;101092.84;1891470;76;21547;-61
2022/06/02 02:00:21;;;;;;;19.87;9.40;;;;;;;17.00;84.80;101097.00;1891480;76;21007;-61
2022/06/02 02:03:02;;;;;;;25.72;10.95;;;;;;;16.97;84.72;101102.05;1891450;76;21047;-61
2022/06/02 02:05:48;;;;;;;23.02;10.43;;;;;;;16.96;84.58;101100.32;1876716;76;21177;-61
2022/06/02 02:08:32;;;;;;;18.05;10.45;;;;;;;16.95;84.81;101100.44;1890966;75;21044;-64
2022/06/02 02:11:13;;;;;;;;;;;;;;;16.95;85.17;101099.11;1893112;75;21023;-61
2022/06/02 02:13:47;;;;;;;21.73;13.68;;;;;;;16.96;85.42;101091.02;1891474;76;20111;-61
2022/06/02 02:16:31;;;;;;;24.40;14.10;;;;;;;17.00;85.38;101093.50;1890266;75;21046;-61
2022/06/02 02:19:19;;;;;;;15.20;9.80;;;;;;;17.04;85.34;101085.70;1891444;75;21685;-60
2022/06/02 02:21:56;;;;;;;14.18;8.23;;;;;;;17.11;85.16;101095.03;1891016;75;21051;-60
2022/06/02 02:24:34;;;;;;;18.87;8.58;;;;;;;17.17;85.13;101094.64;1891735;75;21043;-60
2022/06/02 02:27:24;;;;;;;20.45;10.28;;;;;;;17.23;85.11;101098.28;1891393;75;21023;-61
2022/06/02 02:30:12;;;;;;;22.22;7.72;;;;;;;17.31;85.07;101093.33;1891534;76;21000;-60
2022/06/02 02:33:08;;;;;;;14.98;6.85;;;;;;;17.38;85.12;101097.81;1911641;74;21573;-62
2022/06/02 02:36:12;;;;;;;16.85;7.10;;;;;;;17.50;85.00;101106.83;1924395;74;21087;-62
2022/06/02 02:39:06;;;;;;;19.87;8.13;;;;;;;17.67;84.78;101109.31;1836611;78;21493;-62
2022/06/02 02:41:40;;;;;;;11.53;6.87;;;;;;;17.78;84.43;101113.08;1883128;75;21490;-65
2022/06/02 02:44:28;;;;;;;12.28;6.37;;;;;;;17.86;84.06;101116.16;1891439;76;21466;-63
2022/06/02 02:47:11;;;;;;;18.27;6.83;;;;;;;17.97;83.77;101113.66;1891562;76;21097;-63
2022/06/02 02:49:52;;;;;;;9.75;5.50;;;;;;;18.06;83.51;101121.06;1908058;74;21075;-63
2022/06/02 02:52:26;;;;;;;14.45;6.15;;;;;;;18.23;83.44;101116.45;1924489;74;21099;-64
2022/06/02 02:55:07;;;;;;;12.10;5.45;;;;;;;18.37;83.02;101111.53;1924461;74;21553;-63
2022/06/02 02:57:50;;;;;;;11.55;5.75;;;;;;;18.42;82.51;101112.94;1924124;74;21032;-62
2022/06/02 03:00:22;;;;;;;9.45;5.15;;;;;;;18.69;82.40;101115.59;1894080;74;21044;-65
2022/06/02 03:02:59;;;;;;;11.88;5.42;;;;;;;18.69;82.40;101115.59;1898939;74;21160;-62
2022/06/02 03:05:31;;;;;;;10.68;5.60;;;;;;;18.87;82.30;101122.86;1883582;74;21150;-63
2022/06/02 03:08:09;;;;;;;13.03;5.55;;;;;;;19.01;82.06;101137.07;1898851;74;21095;-62
2022/06/02 12:18:52;;;;;;;13.65;2.58;;;;;;;32.85;32.22;101070.45;1913855;73;21152;-63
2022/06/02 12:21:43;;;;;;;8.53;2.80;;;;;;;32.84;32.34;101070.13;1913476;75;21032;-62
2022/06/02 12:24:40;;;;;;;8.78;2.90;;;;;;;32.91;32.55;101068.81;1854547;77;21198;-62
2022/06/02 12:27:34;;;;;;;11.55;2.92;;;;;;;32.93;32.87;101070.82;1908740;73;21035;-64
2022/06/02 12:30:26;;;;;;;9.50;2.42;;;;;;;32.81;33.39;101065.58;1913558;75;21109;-64
2022/06/02 12:33:06;;;;;;;8.20;3.70;;;;;;;32.72;33.69;101064.05;1912752;75;21530;-64
2022/06/02 12:35:38;;;;;;;7.30;2.92;;;;;;;32.66;34.08;101057.51;1913849;75;21524;-63
2022/06/02 12:38:25;;;;;;;4.62;2.30;;;;;;;32.68;34.04;101060.87;1858283;75;21552;-64
2022/06/02 12:41:08;;;;;;;15.32;3.37;;;;;;;32.72;34.11;101057.23;1913853;75;21039;-63
2022/06/02 12:43:52;;;;;;;10.43;2.75;;;;;;;32.69;34.34;101059.31;1913771;75;21044;-64
2022/06/02 12:46:40;;;;;;;8.58;3.22;;;;;;;32.70;34.55;101054.70;1913749;75;21032;-60
2022/06/02 12:49:44;;;;;;;8.65;4.60;;;;;;;32.70;34.74;101055.56;1913103;75;21035;-65
2022/06/02 12:52:44;;;;;;;7.70;3.40;;;;;;;32.64;34.88;101041.88;1795032;78;21132;-68
2022/06/02 12:55:59;;;;;;;4.92;1.77;;;;;;;32.61;35.17;101040.40;1794005;78;21094;-66
2022/06/02 12:58:54;;;;;;;7.78;2.58;;;;;;;32.57;34.68;101044.50;1795322;80;21078;-68
2022/06/02 13:01:49;;;;;;;9.45;2.80;;;;;;;32.49;34.20;101044.14;1887818;75;21083;-68
2022/06/02 13:04:34;;;;;;;7.20;3.20;;;;;;;32.47;34.17;101042.66;1913761;75;21474;-67
2022/06/02 13:07:25;;;;;;;7.00;2.15;;;;;;;32.44;33.75;101034.87;1908750;75;21083;-67
2022/06/02 13:10:14;;;;;;;9.50;2.75;;;;;;;32.42;33.76;101030.14;1913688;75;21471;-67
2022/06/02 13:13:08;;;;;;;4.03;2.20;;;;;;;32.39;33.79;101033.25;1924660;73;21532;-64
2022/06/02 13:15:59;;;;;;;8.10;2.70;;;;;;;32.34;33.80;101028.93;1902293;75;21045;-64
2022/06/02 13:18:58;;;;;;;6.33;2.83;;;;;;;32.31;33.87;101031.51;1895737;73;21039;-67
2022/06/02 13:21:55;;;;;;;11.03;2.27;;;;;;;32.29;33.60;101025.42;1890886;76;21145;-63
2022/06/02 13:24:48;;;;;;;9.90;2.65;;;;;;;32.25;33.42;101026.86;1891099;76;21566;-65
2022/06/02 13:27:18;;;;;;;;;;;;;;;32.21;33.53;101019.59;1886068;75;21032;-65
2022/06/02 13:30:04;;;;;;;7.70;2.35;;;;;;;32.18;33.39;101019.97;1892886;75;20120;-64
2022/06/02 13:32:36;;;;;;;10.08;2.90;;;;;;;32.13;33.30;101020.58;1899063;75;21063;-67
2022/06/02 13:35:35;;;;;;;8.10;3.25;;;;;;;32.12;33.36;101019.41;1900355;75;21200;-63
2022/06/02 13:38:41;;;;;;;11.28;2.65;;;;;;;32.09;33.44;101019.78;1901984;75;21427;-60
2022/06/02 13:41:37;;;;;;;10.63;2.85;;;;;;;32.06;33.38;101015.58;1805877;79;21598;-58
2022/06/02 13:44:14;;;;;;;7.55;2.30;;;;;;;32.07;33.36;101013.69;1796003;79;21552;-68
2022/06/02 13:47:18;;;;;;;6.60;2.10;;;;;;;32.08;33.73;101008.58;1833163;77;21093;-65
2022/06/02 13:50:04;;;;;;;;;;;;;;;32.08;33.83;101007.22;1872125;77;21131;-69
2022/06/02 13:52:35;;;;;;;6.78;1.80;;;;;;;32.02;33.68;101011.53;1869631;77;20122;-64
2022/06/02 13:58:24;;;;;;;1.70;1.27;;;;;;;31.92;33.88;101000.95;1869730;77;21480;-68
2022/06/02 14:00:56;;;;;;;4.35;1.57;;;;;;;31.93;33.99;101002.64;1869191;77;21053;-65
2022/06/02 14:03:42;;;;;;;3.42;1.50;;;;;;;31.89;33.96;100997.27;1869595;77;21065;-65
2022/06/02 14:06:26;;;;;;;4.55;1.57;;;;;;;31.87;33.86;100996.63;1874393;75;21040;-64
2022/06/02 14:09:15;;;;;;;5.90;2.02;;;;;;;31.82;33.68;100995.00;1895768;75;21079;-64
2022/06/02 14:12:05;;;;;;;5.47;1.70;;;;;;;31.77;33.39;100999.34;1897320;75;21173;-64
2022/06/02 14:14:55;;;;;;;3.65;1.40;;;;;;;31.73;33.06;100996.16;1893725;75;21040;-69
2022/06/02 14:17:52;;;;;;;4.33;2.12;;;;;;;31.70;32.39;100991.09;1890803;75;21145;-64
2022/06/02 14:20:48;;;;;;;7.70;1.40;;;;;;;31.68;31.88;100990.44;1866748;77;21602;-69
2022/06/02 14:23:36;;;;;;;11.03;1.50;;;;;;;31.66;31.56;100993.35;1933679;74;21465;-64
2022/06/02 14:26:20;;;;;;;3.08;1.30;;;;;;;31.63;31.63;100996.97;1930142;74;21477;-65
2022/06/02 14:28:58;;;;;;;4.90;1.65;;;;;;;31.60;31.38;100994.66;1890665;74;21471;-66
2022/06/02 14:31:49;;;;;;;8.28;1.40;;;;;;;31.54;31.52;100993.02;1931004;74;21103;-63
2022/06/02 14:34:36;;;;;;;5.45;1.55;;;;;;;31.50;31.82;101002.61;1931202;74;21506;-62
2022/06/02 14:37:16;;;;;;;6.03;1.90;;;;;;;31.47;31.95;100990.74;1930655;74;21119;-64
2022/06/02 14:39:47;;;;;;;4.12;2.60;;;;;;;31.44;31.97;100999.24;1929509;74;21030;-60
2022/06/02 14:43:03;;;;;;;2.98;1.20;;;;;;;31.41;31.82;100997.42;1931173;74;21021;-64
2022/06/02 14:45:10;;;;;;;9.05;1.77;;;;;;;31.37;31.96;100994.23;1928165;74;21182;-64
2022/06/02 14:47:41;;;;;;;6.47;1.47;;;;;;;31.32;32.45;100996.71;1929705;74;21578;-65
2022/06/02 14:50:16;;;;;;;2.87;1.50;;;;;;;31.29;32.74;100993.83;1931280;74;21416;-66
2022/06/02 14:53:12;;;;;;;8.00;1.85;;;;;;;31.26;33.21;100992.84;1931001;74;21037;-67
2022/06/02 14:55:49;;;;;;;4.95;1.65;;;;;;;31.21;33.73;100984.44;1929741;74;21571;-68
2022/06/02 14:58:41;;;;;;;3.50;1.37;;;;;;;31.17;34.13;100988.55;1913587;74;21478;-68
2022/06/02 15:01:29;;;;;;;3.70;1.40;;;;;;;31.13;34.39;100985.39;1910333;75;21482;-66
2022/06/02 15:04:19;;;;;;;5.90;1.60;;;;;;;31.08;34.55;100984.23;1910749;75;21505;-66
2022/06/02 15:07:17;;;;;;;2.80;1.45;;;;;;;31.02;34.71;100977.69;1922715;74;21033;-66
2022/06/02 15:10:01;;;;;;;9.43;1.95;;;;;;;30.98;34.81;100979.09;1937525;74;21099;-66
2022/06/02 15:12:44;;;;;;;2.22;1.70;;;;;;;30.93;35.25;100986.97;1937497;74;21456;-65
2022/06/02 15:15:40;;;;;;;2.75;1.92;;;;;;;30.89;35.29;100981.55;1937484;74;21109;-67
2022/06/02 15:18:44;;;;;;;5.67;1.95;;;;;;;30.85;35.36;100980.25;1937442;74;21029;-66
2022/06/02 15:21:39;;;;;;;6.20;2.35;;;;;;;30.81;35.63;100979.78;1931982;74;21093;-64
2022/06/02 15:24:11;;;;;;;5.42;1.37;;;;;;;30.76;36.15;100980.33;1937558;74;20998;-65
2022/06/02 15:26:48;;;;;;;8.80;2.22;;;;;;;30.71;36.54;100979.20;1937713;74;21508;-65
2022/06/02 15:29:19;;;;;;;7.22;1.70;;;;;;;30.68;36.68;100984.50;1935082;74;21041;-65
2022/06/02 15:32:10;;;;;;;8.05;2.00;;;;;;;30.63;36.84;100981.49;1934163;74;21029;-65
2022/06/02 15:35:04;;;;;;;6.17;2.65;;;;;;;30.59;36.94;100972.03;1937654;74;21095;-65
2022/06/02 15:37:59;;;;;;;5.15;2.02;;;;;;;30.55;37.09;100976.16;1937442;74;21482;-63
2022/06/02 15:40:33;;;;;;;8.18;1.87;;;;;;;30.51;37.28;100977.56;1937654;74;21106;-65
2022/06/02 15:43:33;;;;;;;5.75;1.87;;;;;;;30.46;37.44;100975.91;1937796;73;21042;-66
2022/06/02 15:46:08;;;;;;;4.80;1.98;;;;;;;30.42;37.51;100978.67;1937609;74;21882;-63
2022/06/02 15:48:55;;;;;;;3.58;1.67;;;;;;;30.35;37.59;100976.67;1936846;74;21038;-63
2022/06/02 15:51:32;;;;;;;5.17;1.72;;;;;;;30.32;37.58;100974.81;1937573;74;21030;-63
2022/06/02 15:54:23;;;;;;;5.12;2.22;;;;;;;30.26;37.68;100981.83;1937627;74;21064;-64
2022/06/02 15:57:09;;;;;;;8.10;1.70;;;;;;;30.21;37.79;100980.16;1937511;74;21080;-63
2022/06/02 16:00:02;;;;;;;5.10;1.90;;;;;;;30.17;37.93;100978.84;1937463;74;21143;-64
2022/06/02 16:02:52;;;;;;;7.00;2.10;;;;;;;30.10;38.03;100975.17;1936351;73;21166;-64
2022/06/02 16:05:35;;;;;;;6.40;1.87;;;;;;;30.05;38.18;100978.97;1937517;74;21033;-63
2022/06/02 16:08:33;;;;;;;6.70;2.10;;;;;;;30.00;38.32;100975.43;1897272;75;21543;-64
2022/06/02 16:11:38;;;;;;;9.05;2.50;;;;;;;29.96;38.44;100980.38;1903863;74;21124;-64
2022/06/02 16:14:28;;;;;;;12.68;3.25;;;;;;;29.90;38.57;100983.83;1937411;74;21037;-64
2022/06/02 16:17:18;;;;;;;10.55;3.37;;;;;;;29.84;38.71;100983.17;1937168;73;21111;-62
2022/06/02 16:20:08;;;;;;;12.40;2.80;;;;;;;29.77;38.77;100990.34;1930888;73;21073;-62
2022/06/02 16:22:57;;;;;;;4.67;1.82;;;;;;;29.71;38.91;100988.33;1918529;75;21065;-62
2022/06/02 16:25:53;;;;;;;7.15;2.42;;;;;;;29.63;39.14;100985.99;1918992;75;21045;-63
2022/06/02 16:28:30;;;;;;;5.47;2.10;;;;;;;29.56;39.34;100985.02;1917381;74;21096;-64
2022/06/02 16:31:08;;;;;;;7.87;2.20;;;;;;;29.49;39.55;100981.33;1906739;74;21034;-63
2022/06/02 16:34:03;;;;;;;5.33;2.20;;;;;;;29.40;39.80;100988.69;1906731;75;21049;-63
2022/06/02 16:36:44;;;;;;;10.82;2.25;;;;;;;29.34;40.09;100983.11;1906866;75;21089;-63
2022/06/02 16:39:40;;;;;;;12.00;2.20;;;;;;;29.25;40.34;100985.87;1905628;74;21049;-63
2022/06/02 16:42:26;;;;;;;12.58;2.75;;;;;;;29.17;40.54;100988.61;1906616;74;21049;-63
2022/06/02 16:45:16;;;;;;;17.32;5.55;;;;;;;29.08;40.78;100985.56;1905904;75;21038;-63
2022/06/02 16:47:53;;;;;;;9.75;2.37;;;;;;;28.98;40.97;100989.01;1906215;75;21479;-63
2022/06/02 16:50:42;;;;;;;5.90;2.05;;;;;;;28.86;41.34;100989.36;1906716;75;21085;-63
2022/06/02 16:56:12;;;;;;;11.05;2.65;;;;;;;28.61;41.86;100994.52;1906695;75;21538;-63
2022/06/02 16:59:04;;;;;;;9.38;1.90;;;;;;;28.46;42.14;100994.34;1906761;74;21919;-63
2022/06/02 17:01:52;;;;;;;8.85;2.40;;;;;;;28.35;42.38;100998.73;1906727;75;21081;-63
2022/06/02 17:04:33;;;;;;;13.68;2.40;;;;;;;28.22;42.75;100993.34;1906779;75;21037;-63
2022/06/02 17:07:07;;;;;;;14.28;2.85;;;;;;;28.11;42.96;100998.58;1906948;74;21092;-63
2022/06/02 17:09:56;;;;;;;16.50;2.72;;;;;;;28.01;43.17;100996.53;1906911;74;21123;-64
2022/06/02 17:12:45;;;;;;;14.30;3.50;;;;;;;27.91;43.47;100998.56;1906718;75;21464;-63
2022/06/02 17:15:22;;;;;;;13.62;8.50;;;;;;;27.80;43.72;101000.21;1906841;74;21107;-63
2022/06/02 17:18:14;;;;;;;19.67;6.10;;;;;;;27.66;43.98;101005.23;1903420;75;21092;-63
2022/06/02 17:21:03;;;;;;;17.60;4.25;;;;;;;27.53;44.27;101004.86;1916982;74;21524;-63
2022/06/02 17:23:56;;;;;;;9.60;2.55;;;;;;;27.40;44.63;101008.55;1933712;74;21174;-64
2022/06/02 17:26:46;;;;;;;10.70;2.00;;;;;;;27.26;44.95;101008.64;1934859;74;21557;-64
2022/06/02 17:29:39;;;;;;;18.87;2.75;;;;;;;27.15;45.19;101004.37;1934412;74;21041;-64
2022/06/02 17:32:34;;;;;;;18.25;2.70;;;;;;;27.05;45.48;101008.52;1934465;74;21145;-64
2022/06/02 17:35:30;;;;;;;9.10;2.27;;;;;;;26.96;45.73;101010.84;1934451;74;21487;-63
2022/06/02 17:38:07;;;;;;;6.75;2.20;;;;;;;26.84;45.96;101014.33;1934438;74;21050;-63
2022/06/02 17:41:06;;;;;;;13.58;2.62;;;;;;;26.77;46.06;101018.67;1934392;74;21168;-64
2022/06/02 17:43:44;;;;;;;9.45;2.70;;;;;;;26.69;46.24;101020.82;1934353;74;21042;-64
2022/06/02 17:46:52;;;;;;;9.18;1.70;;;;;;;26.59;46.38;101017.33;1932431;74;21094;-63
2022/06/02 17:49:32;;;;;;;9.18;2.05;;;;;;;26.54;46.54;101017.81;1933910;74;21488;-63
2022/06/02 17:52:23;;;;;;;4.60;1.65;;;;;;;26.48;46.67;101018.94;1934106;74;21042;-63
2022/06/02 17:55:23;;;;;;;15.90;2.72;;;;;;;26.45;46.79;101020.59;1934387;74;21072;-63
2022/06/02 17:58:13;;;;;;;9.15;2.60;;;;;;;26.39;46.91;101022.06;1934452;74;21483;-62
2022/06/02 18:01:04;;;;;;;10.43;3.37;;;;;;;26.36;47.03;101026.45;1917271;74;21222;-63
2022/06/02 18:03:52;;;;;;;11.75;3.08;;;;;;;26.32;47.11;101022.34;1934208;73;21041;-63
2022/06/02 18:06:42;;;;;;;9.03;2.40;;;;;;;26.28;47.19;101029.06;1934450;74;21030;-63
2022/06/02 18:09:38;;;;;;;9.23;2.17;;;;;;;26.27;47.28;101035.48;1931847;74;21086;-63
2022/06/02 18:12:28;;;;;;;10.55;1.90;;;;;;;26.23;47.42;101032.25;1934312;74;21045;-62
2022/06/02 18:15:23;;;;;;;28.55;2.95;;;;;;;26.19;47.50;101032.18;1934317;74;21033;-63
2022/06/02 18:18:25;;;;;;;14.10;2.55;;;;;;;26.11;47.66;101040.22;1934500;74;21583;-63
2022/06/02 18:21:04;;;;;;;24.60;3.22;;;;;;;26.00;47.83;101036.73;1932007;74;21124;-63
2022/06/02 18:23:52;;;;;;;13.43;2.50;;;;;;;25.89;48.16;101036.09;1925079;74;21050;-63
2022/06/02 18:26:22;;;;;;;11.60;2.40;;;;;;;25.83;48.49;101038.90;1928453;73;21099;-63
2022/06/02 18:29:00;;;;;;;15.00;2.58;;;;;;;25.75;48.62;101047.75;1922917;74;21339;-64
2022/06/02 18:32:12;;;;;;;18.50;2.87;;;;;;;25.68;48.92;101044.47;1925291;74;21561;-64
2022/06/02 18:35:11;;;;;;;15.78;2.58;;;;;;;25.58;49.12;101043.16;1927886;73;21069;-71
2022/06/02 18:38:07;;;;;;;11.45;2.42;;;;;;;25.47;49.35;101040.66;1910949;74;21518;-62
2022/06/02 18:40:56;;;;;;;13.68;2.42;;;;;;;25.37;49.68;101037.52;1915391;74;21504;-67
2022/06/02 18:44:02;;;;;;;10.08;2.20;;;;;;;25.26;50.05;101044.45;1928173;73;21119;-63
2022/06/02 18:47:00;;;;;;;9.78;2.52;;;;;;;25.14;50.39;101042.90;1927372;74;21151;-63
2022/06/02 18:49:36;;;;;;;7.20;2.80;;;;;;;25.04;50.62;101042.44;1928318;74;21111;-63
2022/06/02 18:52:25;;;;;;;10.70;2.45;;;;;;;24.97;50.85;101045.39;1919200;74;21038;-64
2022/06/02 18:55:13;;;;;;;14.58;3.70;;;;;;;24.92;51.08;101046.33;1905054;74;21022;-63
2022/06/02 18:58:04;;;;;;;11.57;3.27;;;;;;;24.89;51.55;101040.37;1925300;74;21074;-64
2022/06/02 19:00:46;;;;;;;20.12;4.47;;;;;;;24.84;51.71;101042.14;1916374;74;21557;-62
2022/06/02 19:03:37;;;;;;;15.50;3.72;;;;;;;24.77;52.02;101039.67;1926910;74;21034;-61
2022/06/02 19:15:13;;;;;;;22.13;5.22;;;;;;;24.54;54.70;101044.55;1918554;74;21049;-62
2022/06/02 19:18:09;;;;;;;34.90;5.97;;;;;;;24.44;56.12;101049.92;1820116;79;21544;-63
2022/06/02 19:21:09;;;;;;;15.00;4.50;;;;;;;24.37;55.95;101055.52;1840001;74;21139;-62
2022/06/02 19:24:07;;;;;;;23.05;4.75;;;;;;;24.31;55.71;101046.64;1926760;74;21054;-62
2022/06/02 19:26:46;;;;;;;18.48;4.55;;;;;;;24.24;55.58;101043.69;1898738;74;21170;-62
2022/06/02 19:29:34;;;;;;;19.73;4.55;;;;;;;24.15;55.55;101040.00;1914155;74;21087;-61
2022/06/02 19:32:25;;;;;;;21.12;4.78;;;;;;;24.04;55.63;101037.45;1928212;74;21034;-61
2022/06/02 19:35:11;;;;;;;23.05;3.90;;;;;;;23.92;56.19;101025.11;1926079;74;21041;-62
2022/06/02 19:37:53;;;;;;;25.17;4.75;;;;;;;23.83;56.36;101029.00;1928144;74;21562;-61
2022/06/02 19:40:51;;;;;;;21.97;4.83;;;;;;;23.75;57.40;101031.99;1906038;74;21201;-62
2022/06/02 19:43:38;;;;;;;23.60;5.17;;;;;;;23.69;57.57;101034.23;1928084;74;21026;-62
2022/06/02 19:46:14;;;;;;;15.10;4.08;;;;;;;23.62;57.95;101030.90;1928171;74;21037;-62
2022/06/02 19:48:46;;;;;;;15.88;4.40;;;;;;;23.55;58.44;101037.30;1928305;74;21506;-61
2022/06/02 19:51:37;;;;;;;11.73;4.17;;;;;;;23.49;58.45;101033.33;1928236;73;21037;-61
2022/06/02 19:54:09;;;;;;;18.20;5.10;;;;;;;23.42;58.23;101029.48;1928137;74;21034;-62
2022/06/02 19:56:55;;;;;;;14.00;4.58;;;;;;;23.35;58.58;101025.67;1926274;74;21038;-61
2022/06/02 19:59:32;;;;;;;17.25;4.60;;;;;;;23.28;58.80;101028.55;1928299;74;21539;-61
2022/06/02 20:02:07;;;;;;;17.65;4.85;;;;;;;23.20;59.01;101025.67;1928079;74;21026;-62
2022/06/02 20:04:40;;;;;;;26.60;5.42;;;;;;;23.11;59.39;101023.29;1904805;74;21112;-61
2022/06/02 20:07:17;;;;;;;11.10;4.75;;;;;;;23.04;59.66;101024.34;1924186;74;21046;-62
2022/06/02 20:10:04;;;;;;;14.28;5.40;;;;;;;22.98;59.86;101020.82;1927236;74;21128;-61
2022/06/02 20:12:41;;;;;;;21.12;6.28;;;;;;;22.87;60.50;101024.91;1927920;74;21046;-62
2022/06/02 20:15:14;;;;;;;16.90;5.58;;;;;;;22.79;61.46;101034.13;1911949;74;21096;-61
2022/06/02 20:17:47;;;;;;;;;;;;;;;22.71;61.87;101028.92;1908465;74;21037;-61
2022/06/02 20:20:30;;;;;;;32.00;9.13;;;;;;;22.67;61.59;101030.17;1926664;74;20117;-61
2022/06/02 20:23:07;;;;;;;;;;;;;;;22.62;61.53;101017.63;1931043;74;21143;-61
2022/06/02 20:25:41;;;;;;;20.57;6.60;;;;;;;22.55;61.58;101023.16;1928245;74;20156;-61
2022/06/02 20:28:20;;;;;;;20.02;6.47;;;;;;;22.51;61.37;101016.36;1925915;74;21038;-62
2022/06/02 20:31:01;;;;;;;15.58;5.35;;;;;;;22.46;62.03;101020.77;1928300;74;21421;-61
2022/06/02 20:33:51;;;;;;;15.32;4.85;;;;;;;22.39;63.22;101019.61;1928020;74;21081;-62
2022/06/02 20:36:44;;;;;;;15.32;6.40;;;;;;;22.30;63.47;101018.55;1928168;74;21103;-61
2022/06/02 20:39:42;;;;;;;27.70;12.88;;;;;;;22.16;64.77;101024.18;1911624;74;21523;-62
2022/06/02 20:42:44;;;;;;;21.97;17.52;;;;;;;22.01;65.26;101018.77;1927587;74;21485;-61
2022/06/02 20:45:19;;;;;;;19.80;13.60;;;;;;;21.90;65.46;101018.30;1927387;74;21034;-61
2022/06/02 20:47:53;;;;;;;23.32;11.20;;;;;;;21.79;65.93;101013.83;1912111;74;21039;-62
2022/06/02 20:50:27;;;;;;;11.25;5.90;;;;;;;21.64;66.86;101009.23;1927919;74;21038;-61
2022/06/02 20:53:05;;;;;;;10.40;4.90;;;;;;;21.48;67.33;101004.26;1928250;74;21105;-62
2022/06/02 20:55:45;;;;;;;8.85;4.37;;;;;;;21.40;67.21;101004.85;1927349;74;21125;-61
2022/06/02 20:58:16;;;;;;;15.72;4.62;;;;;;;21.33;67.37;101005.47;1928274;73;21034;-62
2022/06/02 21:00:56;;;;;;;13.58;4.40;;;;;;;21.26;67.77;101012.30;1917006;74;21042;-61
2022/06/02 21:03:40;;;;;;;10.32;4.53;;;;;;;21.21;67.96;101008.16;1928489;73;21042;-62
2022/06/02 21:06:18;;;;;;;12.35;4.35;;;;;;;21.15;68.32;101001.94;1928298;74;21022;-61
2022/06/02 21:08:52;;;;;;;9.68;5.05;;;;;;;21.06;69.12;101008.02;1927758;74;21037;-61
2022/06/02 21:11:27;;;;;;;15.43;4.95;;;;;;;20.99;69.35;101007.67;1908244;74;21065;-61
2022/06/02 21:14:01;;;;;;;14.47;4.78;;;;;;;20.92;69.71;101001.59;1927930;74;21555;-61
2022/06/02 21:16:36;;;;;;;18.67;5.03;;;;;;;20.88;69.43;101004.99;1926339;74;21119;-61
2022/06/02 21:19:35;;;;;;;17.95;6.58;;;;;;;20.89;69.45;101008.02;1928383;73;21042;-63
2022/06/02 21:22:12;;;;;;;14.93;9.63;;;;;;;20.89;69.78;101006.68;1928644;74;21038;-61
2022/06/02 21:24:41;;;;;;;12.75;8.53;;;;;;;20.88;69.84;101006.80;1933755;74;21100;-62
2022/06/02 21:27:31;;;;;;;10.58;5.70;;;;;;;20.87;69.51;101005.11;1934491;74;21111;-63
2022/06/02 21:30:22;;;;;;;12.18;5.35;;;;;;;20.86;69.18;101002.05;1934377;74;21030;-62
2022/06/02 21:32:53;;;;;;;12.53;6.92;;;;;;;20.81;68.96;101004.61;1934494;74;21107;-61
2022/06/02 21:35:33;;;;;;;8.83;5.72;;;;;;;20.79;68.72;101013.74;1932675;74;21099;-62
2022/06/02 21:38:04;;;;;;;12.25;5.25;;;;;;;20.75;68.67;101010.45;1934312;74;21084;-62
2022/06/02 21:40:38;;;;;;;11.25;7.08;;;;;;;20.72;68.99;101005.82;1934478;74;21077;-61
2022/06/02 21:43:21;;;;;;;15.10;7.22;;;;;;;20.67;69.17;101001.30;1934488;74;21006;-62
2022/06/02 21:45:56;;;;;;;17.52;6.72;;;;;;;20.57;70.03;101001.98;1913845;74;21531;-61
2022/06/02 21:48:30;;;;;;;12.80;5.45;;;;;;;20.50;69.77;100995.89;1928843;74;21029;-62
2022/06/02 21:51:11;;;;;;;11.50;5.17;;;;;;;20.47;69.44;100993.44;1933630;74;21041;-61
2022/06/02 21:53:57;;;;;;;14.60;5.75;;;;;;;20.43;69.29;100992.33;1909749;74;21045;-61
2022/06/02 21:56:40;;;;;;;16.42;6.22;;;;;;;20.41;69.20;100988.92;1928331;74;21432;-61
2022/06/02 21:59:27;;;;;;;10.80;5.58;;;;;;;20.35;69.62;100981.38;1928351;74;21115;-61
2022/06/02 22:02:04;;;;;;;12.70;4.85;;;;;;;20.30;70.16;100986.72;1926475;74;21112;-61
2022/06/02 22:04:39;;;;;;;11.38;5.25;;;;;;;20.25;69.82;100981.70;1933984;74;21538;-61
2022/06/02 22:07:20;;;;;;;13.25;4.87;;;;;;;20.23;69.71;100979.17;1934275;74;21006;-62